sensor_id;sensor_type;location;lat;lon;timestamp;temperature;humidity
67194;DHT22;54121;53.508;49.422;2023-04-29T00:02:15;20.90;26.10
67194;DHT22;54121;53.508;49.422;2023-04-29T00:04:41;20.80;26.10
67194;DHT22;54121;53.508;49.422;2023-04-29T00:07:07;20.80;26.20
67194;DHT22;54121;53.508;49.422;2023-04-29T00:09:44;19.60;25.80
67194;DHT22;54121;53.508;49.422;2023-04-29T00:12:13;20.80;26.20
67194;DHT22;54121;53.508;49.422;2023-04-29T00:14:42;20.70;26.60
67194;DHT22;54121;53.508;49.422;2023-04-29T00:17:11;20.80;26.20
67194;DHT22;54121;53.508;49.422;2023-04-29T00:19:40;20.70;26.30
67194;DHT22;54121;53.508;49.422;2023-04-29T00:22:14;20.70;26.20
67194;DHT22;54121;53.508;49.422;2023-04-29T00:24:40;20.70;26.30
67194;DHT22;54121;53.508;49.422;2023-04-29T00:27:09;20.60;26.40
67194;DHT22;54121;53.508;49.422;2023-04-29T00:29:39;20.60;26.40
67194;DHT22;54121;53.508;49.422;2023-04-29T00:32:05;20.40;26.60
67194;DHT22;54121;53.508;49.422;2023-04-29T00:34:31;20.50;26.70
67194;DHT22;54121;53.508;49.422;2023-04-29T00:36:58;18.90;26.20
67194;DHT22;54121;53.508;49.422;2023-04-29T00:39:31;20.40;26.80
67194;DHT22;54121;53.508;49.422;2023-04-29T00:42:01;19.60;26.30
67194;DHT22;54121;53.508;49.422;2023-04-29T00:44:28;20.40;26.70
67194;DHT22;54121;53.508;49.422;2023-04-29T00:46:57;20.30;26.80
67194;DHT22;54121;53.508;49.422;2023-04-29T00:49:26;20.20;27.00
67194;DHT22;54121;53.508;49.422;2023-04-29T00:51:55;20.10;27.00
67194;DHT22;54121;53.508;49.422;2023-04-29T00:54:23;20.20;27.20
67194;DHT22;54121;53.508;49.422;2023-04-29T00:56:51;20.10;27.40
67194;DHT22;54121;53.508;49.422;2023-04-29T00:59:19;20.00;27.40
67194;DHT22;54121;53.508;49.422;2023-04-29T01:01:49;19.80;27.20
67194;DHT22;54121;53.508;49.422;2023-04-29T01:04:17;20.10;27.30
67194;DHT22;54121;53.508;49.422;2023-04-29T01:06:57;17.80;26.20
67194;DHT22;54121;53.508;49.422;2023-04-29T01:12:56;20.10;27.20
67194;DHT22;54121;53.508;49.422;2023-04-29T01:15:15;20.10;27.20
67194;DHT22;54121;53.508;49.422;2023-04-29T01:17:58;20.10;27.20
67194;DHT22;54121;53.508;49.422;2023-04-29T01:20:25;20.10;27.20
67194;DHT22;54121;53.508;49.422;2023-04-29T01:22:55;20.10;27.20
67194;DHT22;54121;53.508;49.422;2023-04-29T01:25:21;19.90;27.50
67194;DHT22;54121;53.508;49.422;2023-04-29T01:30:39;20.00;27.60
67194;DHT22;54121;53.508;49.422;2023-04-29T01:33:28;19.90;27.30
67194;DHT22;54121;53.508;49.422;2023-04-29T01:36:07;18.80;26.80
67194;DHT22;54121;53.508;49.422;2023-04-29T01:38:36;20.20;27.30
67194;DHT22;54121;53.508;49.422;2023-04-29T01:41:09;20.10;27.40
67194;DHT22;54121;53.508;49.422;2023-04-29T01:43:38;20.30;27.30
67194;DHT22;54121;53.508;49.422;2023-04-29T01:46:07;20.40;27.10
67194;DHT22;54121;53.508;49.422;2023-04-29T01:48:34;20.30;27.10
67194;DHT22;54121;53.508;49.422;2023-04-29T01:51:04;20.40;27.10
67194;DHT22;54121;53.508;49.422;2023-04-29T01:53:35;20.50;27.00
67194;DHT22;54121;53.508;49.422;2023-04-29T01:56:02;19.80;26.70
67194;DHT22;54121;53.508;49.422;2023-04-29T01:58:28;20.50;27.10
67194;DHT22;54121;53.508;49.422;2023-04-29T02:00:56;20.70;26.80
67194;DHT22;54121;53.508;49.422;2023-04-29T02:03:23;20.90;26.80
67194;DHT22;54121;53.508;49.422;2023-04-29T02:05:52;21.40;26.10
67194;DHT22;54121;53.508;49.422;2023-04-29T02:08:23;21.90;25.40
67194;DHT22;54121;53.508;49.422;2023-04-29T02:10:55;22.10;24.50
67194;DHT22;54121;53.508;49.422;2023-04-29T02:13:24;21.70;23.30
67194;DHT22;54121;53.508;49.422;2023-04-29T02:15:53;21.80;22.40
67194;DHT22;54121;53.508;49.422;2023-04-29T02:18:21;24.10;22.50
67194;DHT22;54121;53.508;49.422;2023-04-29T02:20:52;24.70;21.80
67194;DHT22;54121;53.508;49.422;2023-04-29T02:23:27;25.30;21.10
67194;DHT22;54121;53.508;49.422;2023-04-29T02:25:59;25.70;20.30
67194;DHT22;54121;53.508;49.422;2023-04-29T02:28:31;24.60;19.20
67194;DHT22;54121;53.508;49.422;2023-04-29T02:31:00;25.30;18.70
67194;DHT22;54121;53.508;49.422;2023-04-29T02:33:28;26.00;18.30
67194;DHT22;54121;53.508;49.422;2023-04-29T02:35:55;27.60;18.40
67194;DHT22;54121;53.508;49.422;2023-04-29T02:38:26;27.90;18.00
67194;DHT22;54121;53.508;49.422;2023-04-29T02:40:55;28.40;17.60
67194;DHT22;54121;53.508;49.422;2023-04-29T02:43:24;28.80;17.10
67194;DHT22;54121;53.508;49.422;2023-04-29T02:45:51;29.20;16.80
67194;DHT22;54121;53.508;49.422;2023-04-29T02:48:17;29.40;16.40
67194;DHT22;54121;53.508;49.422;2023-04-29T02:50:44;29.70;16.20
67194;DHT22;54121;53.508;49.422;2023-04-29T02:53:10;30.40;15.70
67194;DHT22;54121;53.508;49.422;2023-04-29T02:55:36;31.00;15.10
67194;DHT22;54121;53.508;49.422;2023-04-29T02:58:08;31.30;14.70
67194;DHT22;54121;53.508;49.422;2023-04-29T03:00:34;31.30;14.60
67194;DHT22;54121;53.508;49.422;2023-04-29T03:03:04;31.80;14.10
67194;DHT22;54121;53.508;49.422;2023-04-29T03:05:32;32.00;13.90
67194;DHT22;54121;53.508;49.422;2023-04-29T03:08:02;32.50;13.50
67194;DHT22;54121;53.508;49.422;2023-04-29T03:10:32;32.70;13.10
67194;DHT22;54121;53.508;49.422;2023-04-29T03:12:58;33.10;13.10
67194;DHT22;54121;53.508;49.422;2023-04-29T03:15:27;33.20;13.00
67194;DHT22;54121;53.508;49.422;2023-04-29T03:17:54;33.80;12.50
67194;DHT22;54121;53.508;49.422;2023-04-29T03:20:20;34.30;12.20
67194;DHT22;54121;53.508;49.422;2023-04-29T03:22:47;34.70;11.90
67194;DHT22;54121;53.508;49.422;2023-04-29T03:25:15;34.90;11.50
67194;DHT22;54121;53.508;49.422;2023-04-29T03:27:44;35.80;10.90
67194;DHT22;54121;53.508;49.422;2023-04-29T03:30:13;35.70;10.70
67194;DHT22;54121;53.508;49.422;2023-04-29T03:32:42;35.50;10.80
67194;DHT22;54121;53.508;49.422;2023-04-29T03:35:10;36.70;10.50
67194;DHT22;54121;53.508;49.422;2023-04-29T03:37:37;37.40;9.70
67194;DHT22;54121;53.508;49.422;2023-04-29T03:40:04;37.70;9.30
67194;DHT22;54121;53.508;49.422;2023-04-29T03:42:33;35.50;8.70
67194;DHT22;54121;53.508;49.422;2023-04-29T03:45:00;37.80;9.20
67194;DHT22;54121;53.508;49.422;2023-04-29T03:47:28;38.60;8.70
67194;DHT22;54121;53.508;49.422;2023-04-29T03:49:54;38.20;8.00
67194;DHT22;54121;53.508;49.422;2023-04-29T03:52:23;39.00;8.40
67194;DHT22;54121;53.508;49.422;2023-04-29T03:54:49;39.60;7.90
67194;DHT22;54121;53.508;49.422;2023-04-29T03:57:16;40.10;7.50
67194;DHT22;54121;53.508;49.422;2023-04-29T03:59:47;40.20;7.50
67194;DHT22;54121;53.508;49.422;2023-04-29T04:02:15;40.60;7.30
67194;DHT22;54121;53.508;49.422;2023-04-29T04:04:44;41.20;7.10
67194;DHT22;54121;53.508;49.422;2023-04-29T04:07:15;41.50;6.70
67194;DHT22;54121;53.508;49.422;2023-04-29T04:09:41;41.90;6.20
67194;DHT22;54121;53.508;49.422;2023-04-29T04:12:08;41.80;6.50
67194;DHT22;54121;53.508;49.422;2023-04-29T04:14:37;42.50;6.10
67194;DHT22;54121;53.508;49.422;2023-04-29T04:17:03;42.90;5.60
67194;DHT22;54121;53.508;49.422;2023-04-29T04:19:29;43.10;5.30
67194;DHT22;54121;53.508;49.422;2023-04-29T04:21:58;43.10;5.80
67194;DHT22;54121;53.508;49.422;2023-04-29T04:24:27;42.80;5.50
67194;DHT22;54121;53.508;49.422;2023-04-29T04:26:53;43.50;5.30
67194;DHT22;54121;53.508;49.422;2023-04-29T04:29:23;44.00;5.10
67194;DHT22;54121;53.508;49.422;2023-04-29T04:31:53;43.80;4.90
67194;DHT22;54121;53.508;49.422;2023-04-29T04:34:22;43.80;4.90
67194;DHT22;54121;53.508;49.422;2023-04-29T04:36:52;43.70;5.00
67194;DHT22;54121;53.508;49.422;2023-04-29T04:39:18;44.30;4.70
67194;DHT22;54121;53.508;49.422;2023-04-29T04:41:45;44.60;4.20
67194;DHT22;54121;53.508;49.422;2023-04-29T04:44:13;44.50;4.40
67194;DHT22;54121;53.508;49.422;2023-04-29T04:46:39;44.90;4.10
67194;DHT22;54121;53.508;49.422;2023-04-29T04:49:12;44.90;4.20
67194;DHT22;54121;53.508;49.422;2023-04-29T04:51:41;45.30;4.00
67194;DHT22;54121;53.508;49.422;2023-04-29T04:54:09;44.60;4.30
67194;DHT22;54121;53.508;49.422;2023-04-29T04:56:35;44.90;4.10
67194;DHT22;54121;53.508;49.422;2023-04-29T04:59:03;44.20;4.50
67194;DHT22;54121;53.508;49.422;2023-04-29T05:01:31;44.10;4.50
67194;DHT22;54121;53.508;49.422;2023-04-29T05:03:58;45.10;4.00
67194;DHT22;54121;53.508;49.422;2023-04-29T05:06:28;45.30;3.80
67194;DHT22;54121;53.508;49.422;2023-04-29T05:08:54;45.20;3.80
67194;DHT22;54121;53.508;49.422;2023-04-29T05:11:20;44.40;4.40
67194;DHT22;54121;53.508;49.422;2023-04-29T05:13:47;44.40;4.30
67194;DHT22;54121;53.508;49.422;2023-04-29T05:16:16;44.20;4.30
67194;DHT22;54121;53.508;49.422;2023-04-29T05:18:43;44.40;4.20
67194;DHT22;54121;53.508;49.422;2023-04-29T05:21:13;44.00;4.00
67194;DHT22;54121;53.508;49.422;2023-04-29T05:23:40;43.80;4.30
67194;DHT22;54121;53.508;49.422;2023-04-29T05:26:09;44.20;4.10
67194;DHT22;54121;53.508;49.422;2023-04-29T05:28:38;44.30;4.20
67194;DHT22;54121;53.508;49.422;2023-04-29T05:31:04;43.60;3.60
67194;DHT22;54121;53.508;49.422;2023-04-29T05:33:37;45.00;3.90
67194;DHT22;54121;53.508;49.422;2023-04-29T05:36:06;45.10;3.90
67194;DHT22;54121;53.508;49.422;2023-04-29T05:38:36;44.60;3.90
67194;DHT22;54121;53.508;49.422;2023-04-29T05:41:04;45.50;3.70
67194;DHT22;54121;53.508;49.422;2023-04-29T05:43:31;45.70;3.50
67194;DHT22;54121;53.508;49.422;2023-04-29T05:45:57;45.50;3.50
67194;DHT22;54121;53.508;49.422;2023-04-29T05:48:23;46.20;3.40
67194;DHT22;54121;53.508;49.422;2023-04-29T05:50:52;46.30;3.00
67194;DHT22;54121;53.508;49.422;2023-04-29T05:53:19;46.30;3.10
67194;DHT22;54121;53.508;49.422;2023-04-29T05:55:45;46.50;2.90
67194;DHT22;54121;53.508;49.422;2023-04-29T05:58:15;45.90;2.90
67194;DHT22;54121;53.508;49.422;2023-04-29T06:00:42;45.20;2.70
67194;DHT22;54121;53.508;49.422;2023-04-29T06:03:09;46.10;2.90
67194;DHT22;54121;53.508;49.422;2023-04-29T06:05:39;46.30;2.60
67194;DHT22;54121;53.508;49.422;2023-04-29T06:08:05;47.20;2.40
67194;DHT22;54121;53.508;49.422;2023-04-29T06:10:32;47.20;2.20
67194;DHT22;54121;53.508;49.422;2023-04-29T06:13:04;46.50;2.30
67194;DHT22;54121;53.508;49.422;2023-04-29T06:15:30;46.60;2.50
67194;DHT22;54121;53.508;49.422;2023-04-29T06:17:57;47.10;2.20
67194;DHT22;54121;53.508;49.422;2023-04-29T06:20:24;46.30;2.50
67194;DHT22;54121;53.508;49.422;2023-04-29T06:22:53;46.60;2.10
67194;DHT22;54121;53.508;49.422;2023-04-29T06:25:24;46.30;2.50
67194;DHT22;54121;53.508;49.422;2023-04-29T06:27:52;47.10;2.20
67194;DHT22;54121;53.508;49.422;2023-04-29T06:30:19;47.40;1.90
67194;DHT22;54121;53.508;49.422;2023-04-29T06:32:50;46.90;2.00
67194;DHT22;54121;53.508;49.422;2023-04-29T06:35:18;46.50;2.00
67194;DHT22;54121;53.508;49.422;2023-04-29T06:37:45;46.50;2.00
67194;DHT22;54121;53.508;49.422;2023-04-29T06:40:15;47.70;1.60
67194;DHT22;54121;53.508;49.422;2023-04-29T06:42:46;46.90;1.80
67194;DHT22;54121;53.508;49.422;2023-04-29T06:45:14;47.50;1.70
67194;DHT22;54121;53.508;49.422;2023-04-29T06:47:43;46.90;1.80
67194;DHT22;54121;53.508;49.422;2023-04-29T06:50:09;47.60;1.70
67194;DHT22;54121;53.508;49.422;2023-04-29T06:52:38;46.90;1.80
67194;DHT22;54121;53.508;49.422;2023-04-29T06:55:07;46.10;2.20
67194;DHT22;54121;53.508;49.422;2023-04-29T06:57:36;46.60;1.80
67194;DHT22;54121;53.508;49.422;2023-04-29T07:00:05;46.80;1.90
67194;DHT22;54121;53.508;49.422;2023-04-29T07:02:34;44.70;2.60
67194;DHT22;54121;53.508;49.422;2023-04-29T07:05:00;45.30;2.70
67194;DHT22;54121;53.508;49.422;2023-04-29T07:07:30;45.70;2.50
67194;DHT22;54121;53.508;49.422;2023-04-29T07:09:56;46.00;2.50
67194;DHT22;54121;53.508;49.422;2023-04-29T07:12:28;45.90;2.40
67194;DHT22;54121;53.508;49.422;2023-04-29T07:14:57;46.20;2.20
67194;DHT22;54121;53.508;49.422;2023-04-29T07:17:25;46.20;2.20
67194;DHT22;54121;53.508;49.422;2023-04-29T07:19:56;46.20;2.30
67194;DHT22;54121;53.508;49.422;2023-04-29T07:22:23;46.80;2.10
67194;DHT22;54121;53.508;49.422;2023-04-29T07:24:52;46.30;2.10
67194;DHT22;54121;53.508;49.422;2023-04-29T07:27:20;46.20;2.30
67194;DHT22;54121;53.508;49.422;2023-04-29T07:29:49;46.50;2.30
67194;DHT22;54121;53.508;49.422;2023-04-29T07:32:18;46.10;2.20
67194;DHT22;54121;53.508;49.422;2023-04-29T07:34:47;46.00;2.50
67194;DHT22;54121;53.508;49.422;2023-04-29T07:37:13;45.70;2.40
67194;DHT22;54121;53.508;49.422;2023-04-29T07:39:40;45.60;2.40
67194;DHT22;54121;53.508;49.422;2023-04-29T07:42:07;46.20;2.40
67194;DHT22;54121;53.508;49.422;2023-04-29T07:44:36;46.30;2.40
67194;DHT22;54121;53.508;49.422;2023-04-29T07:47:05;45.60;2.80
67194;DHT22;54121;53.508;49.422;2023-04-29T07:49:34;45.90;2.70
67194;DHT22;54121;53.508;49.422;2023-04-29T07:52:03;46.00;2.60
67194;DHT22;54121;53.508;49.422;2023-04-29T07:54:32;46.00;2.50
67194;DHT22;54121;53.508;49.422;2023-04-29T07:57:01;45.60;2.80
67194;DHT22;54121;53.508;49.422;2023-04-29T07:59:29;44.60;3.20
67194;DHT22;54121;53.508;49.422;2023-04-29T08:01:56;44.70;3.60
67194;DHT22;54121;53.508;49.422;2023-04-29T08:04:23;44.60;3.40
67194;DHT22;54121;53.508;49.422;2023-04-29T08:06:53;45.10;3.10
67194;DHT22;54121;53.508;49.422;2023-04-29T08:09:22;44.70;3.30
67194;DHT22;54121;53.508;49.422;2023-04-29T08:11:53;44.40;3.50
67194;DHT22;54121;53.508;49.422;2023-04-29T08:14:20;44.40;3.50
67194;DHT22;54121;53.508;49.422;2023-04-29T08:16:48;44.80;3.20
67194;DHT22;54121;53.508;49.422;2023-04-29T08:19:19;44.80;3.30
67194;DHT22;54121;53.508;49.422;2023-04-29T08:21:48;44.90;3.30
67194;DHT22;54121;53.508;49.422;2023-04-29T08:24:15;45.40;3.10
67194;DHT22;54121;53.508;49.422;2023-04-29T08:26:41;45.10;2.80
67194;DHT22;54121;53.508;49.422;2023-04-29T08:29:08;44.70;3.10
67194;DHT22;54121;53.508;49.422;2023-04-29T08:31:36;44.30;3.50
67194;DHT22;54121;53.508;49.422;2023-04-29T08:34:05;44.30;3.50
67194;DHT22;54121;53.508;49.422;2023-04-29T08:36:34;44.20;2.80
67194;DHT22;54121;53.508;49.422;2023-04-29T08:39:06;45.20;3.10
67194;DHT22;54121;53.508;49.422;2023-04-29T08:41:32;43.90;3.20
67194;DHT22;54121;53.508;49.422;2023-04-29T08:43:58;44.40;3.60
67194;DHT22;54121;53.508;49.422;2023-04-29T08:46:28;44.20;3.70
67194;DHT22;54121;53.508;49.422;2023-04-29T08:48:57;44.30;3.40
67194;DHT22;54121;53.508;49.422;2023-04-29T08:51:23;44.20;3.50
67194;DHT22;54121;53.508;49.422;2023-04-29T08:53:50;43.80;3.50
67194;DHT22;54121;53.508;49.422;2023-04-29T08:56:19;44.00;3.70
67194;DHT22;54121;53.508;49.422;2023-04-29T08:58:47;44.00;3.10
67194;DHT22;54121;53.508;49.422;2023-04-29T09:01:19;44.10;3.30
67194;DHT22;54121;53.508;49.422;2023-04-29T09:06:17;44.50;3.20
67194;DHT22;54121;53.508;49.422;2023-04-29T09:08:44;44.80;3.10
67194;DHT22;54121;53.508;49.422;2023-04-29T09:11:13;45.20;3.40
67194;DHT22;54121;53.508;49.422;2023-04-29T09:13:39;45.30;3.00
67194;DHT22;54121;53.508;49.422;2023-04-29T09:16:12;45.80;2.80
67194;DHT22;54121;53.508;49.422;2023-04-29T09:18:45;45.50;2.60
67194;DHT22;54121;53.508;49.422;2023-04-29T09:21:18;45.70;2.70
67194;DHT22;54121;53.508;49.422;2023-04-29T09:23:50;45.60;2.60
67194;DHT22;54121;53.508;49.422;2023-04-29T09:26:20;45.60;2.60
67194;DHT22;54121;53.508;49.422;2023-04-29T09:29:07;45.90;2.60
67194;DHT22;54121;53.508;49.422;2023-04-29T09:31:39;46.60;2.20
67194;DHT22;54121;53.508;49.422;2023-04-29T09:34:05;46.70;2.10
67194;DHT22;54121;53.508;49.422;2023-04-29T09:36:42;47.10;1.80
67194;DHT22;54121;53.508;49.422;2023-04-29T09:39:12;47.10;1.80
67194;DHT22;54121;53.508;49.422;2023-04-29T09:44:10;48.20;1.30
67194;DHT22;54121;53.508;49.422;2023-04-29T09:46:36;46.50;2.00
67194;DHT22;54121;53.508;49.422;2023-04-29T09:49:20;46.10;2.40
67194;DHT22;54121;53.508;49.422;2023-04-29T09:51:52;46.90;1.80
67194;DHT22;54121;53.508;49.422;2023-04-29T09:54:22;47.70;1.60
67194;DHT22;54121;53.508;49.422;2023-04-29T09:56:50;48.10;1.20
67194;DHT22;54121;53.508;49.422;2023-04-29T09:59:19;47.40;1.40
67194;DHT22;54121;53.508;49.422;2023-04-29T10:01:51;48.00;1.10
67194;DHT22;54121;53.508;49.422;2023-04-29T10:04:22;48.00;1.30
67194;DHT22;54121;53.508;49.422;2023-04-29T10:06:50;48.10;2.10
67194;DHT22;54121;53.508;49.422;2023-04-29T10:09:22;48.30;1.20
67194;DHT22;54121;53.508;49.422;2023-04-29T10:11:49;48.40;1.30
67194;DHT22;54121;53.508;49.422;2023-04-29T10:14:20;48.20;1.40
67194;DHT22;54121;53.508;49.422;2023-04-29T10:24:56;48.00;1.10
67194;DHT22;54121;53.508;49.422;2023-04-29T10:27:28;48.10;1.60
67194;DHT22;54121;53.508;49.422;2023-04-29T10:29:56;48.90;1.00
67194;DHT22;54121;53.508;49.422;2023-04-29T10:32:26;49.00;1.00
67194;DHT22;54121;53.508;49.422;2023-04-29T10:34:53;49.20;1.00
67194;DHT22;54121;53.508;49.422;2023-04-29T10:37:23;49.10;1.00
67194;DHT22;54121;53.508;49.422;2023-04-29T10:48:28;48.20;1.00
67194;DHT22;54121;53.508;49.422;2023-04-29T10:50:34;46.30;1.70
67194;DHT22;54121;53.508;49.422;2023-04-29T10:53:03;48.10;1.30
67194;DHT22;54121;53.508;49.422;2023-04-29T10:55:30;48.90;1.00
67194;DHT22;54121;53.508;49.422;2023-04-29T10:57:56;49.70;1.00
67194;DHT22;54121;53.508;49.422;2023-04-29T11:00:27;49.80;1.00
67194;DHT22;54121;53.508;49.422;2023-04-29T11:02:56;50.40;1.00
67194;DHT22;54121;53.508;49.422;2023-04-29T11:05:30;49.40;1.00
67194;DHT22;54121;53.508;49.422;2023-04-29T11:08:11;49.80;1.00
67194;DHT22;54121;53.508;49.422;2023-04-29T11:10:41;50.20;1.00
67194;DHT22;54121;53.508;49.422;2023-04-29T11:13:23;49.90;1.00
67194;DHT22;54121;53.508;49.422;2023-04-29T11:15:50;48.30;1.10
67194;DHT22;54121;53.508;49.422;2023-04-29T11:18:17;48.00;1.30
67194;DHT22;54121;53.508;49.422;2023-04-29T11:23:31;48.70;1.30
67194;DHT22;54121;53.508;49.422;2023-04-29T11:25:59;49.10;1.00
67194;DHT22;54121;53.508;49.422;2023-04-29T11:28:31;50.10;1.00
67194;DHT22;54121;53.508;49.422;2023-04-29T11:30:58;49.20;1.00
67194;DHT22;54121;53.508;49.422;2023-04-29T11:33:31;47.90;1.80
67194;DHT22;54121;53.508;49.422;2023-04-29T11:35:58;48.60;1.00
67194;DHT22;54121;53.508;49.422;2023-04-29T11:38:25;49.10;1.00
67194;DHT22;54121;53.508;49.422;2023-04-29T11:40:54;50.30;1.00
67194;DHT22;54121;53.508;49.422;2023-04-29T11:43:23;50.40;1.00
67194;DHT22;54121;53.508;49.422;2023-04-29T11:45:50;50.20;1.00
67194;DHT22;54121;53.508;49.422;2023-04-29T11:48:19;50.20;1.00
67194;DHT22;54121;53.508;49.422;2023-04-29T11:50:49;50.80;1.00
67194;DHT22;54121;53.508;49.422;2023-04-29T11:53:19;51.60;1.00
67194;DHT22;54121;53.508;49.422;2023-04-29T11:55:50;51.70;1.00
67194;DHT22;54121;53.508;49.422;2023-04-29T11:58:19;50.80;1.00
67194;DHT22;54121;53.508;49.422;2023-04-29T12:00:49;50.50;1.00
67194;DHT22;54121;53.508;49.422;2023-04-29T12:03:19;50.90;1.00
67194;DHT22;54121;53.508;49.422;2023-04-29T12:08:21;51.70;1.00
67194;DHT22;54121;53.508;49.422;2023-04-29T12:10:48;52.20;1.00
67194;DHT22;54121;53.508;49.422;2023-04-29T12:13:18;52.80;1.00
67194;DHT22;54121;53.508;49.422;2023-04-29T12:15:45;53.00;1.00
67194;DHT22;54121;53.508;49.422;2023-04-29T12:18:15;52.00;1.00
67194;DHT22;54121;53.508;49.422;2023-04-29T12:20:44;51.90;1.00
67194;DHT22;54121;53.508;49.422;2023-04-29T12:23:12;52.30;1.00
67194;DHT22;54121;53.508;49.422;2023-04-29T12:25:38;51.30;1.00
67194;DHT22;54121;53.508;49.422;2023-04-29T12:28:11;51.40;1.00
67194;DHT22;54121;53.508;49.422;2023-04-29T12:30:38;52.50;1.00
67194;DHT22;54121;53.508;49.422;2023-04-29T12:33:07;50.80;1.00
67194;DHT22;54121;53.508;49.422;2023-04-29T12:35:37;50.10;1.00
67194;DHT22;54121;53.508;49.422;2023-04-29T12:38:03;49.30;1.00
67194;DHT22;54121;53.508;49.422;2023-04-29T12:40:30;49.80;1.00
67194;DHT22;54121;53.508;49.422;2023-04-29T12:43:09;51.00;1.00
67194;DHT22;54121;53.508;49.422;2023-04-29T12:45:40;51.30;1.00
67194;DHT22;54121;53.508;49.422;2023-04-29T12:48:07;51.50;1.00
67194;DHT22;54121;53.508;49.422;2023-04-29T12:50:39;51.60;1.00
67194;DHT22;54121;53.508;49.422;2023-04-29T12:53:08;52.10;1.00
67194;DHT22;54121;53.508;49.422;2023-04-29T12:55:34;52.20;1.00
67194;DHT22;54121;53.508;49.422;2023-04-29T12:58:02;51.80;1.00
67194;DHT22;54121;53.508;49.422;2023-04-29T13:00:29;51.60;1.00
67194;DHT22;54121;53.508;49.422;2023-04-29T13:02:55;50.70;1.00
67194;DHT22;54121;53.508;49.422;2023-04-29T13:05:26;52.00;1.00
67194;DHT22;54121;53.508;49.422;2023-04-29T13:07:57;52.80;1.00
67194;DHT22;54121;53.508;49.422;2023-04-29T13:10:26;52.40;1.00
67194;DHT22;54121;53.508;49.422;2023-04-29T13:13:01;52.00;1.00
67194;DHT22;54121;53.508;49.422;2023-04-29T13:15:27;51.80;1.00
67194;DHT22;54121;53.508;49.422;2023-04-29T13:17:56;52.60;1.00
67194;DHT22;54121;53.508;49.422;2023-04-29T13:20:24;51.30;1.00
67194;DHT22;54121;53.508;49.422;2023-04-29T13:22:51;51.40;1.00
67194;DHT22;54121;53.508;49.422;2023-04-29T13:25:19;51.50;1.00
67194;DHT22;54121;53.508;49.422;2023-04-29T13:27:46;51.80;1.00
67194;DHT22;54121;53.508;49.422;2023-04-29T13:30:15;52.20;1.00
67194;DHT22;54121;53.508;49.422;2023-04-29T13:32:44;51.70;1.00
67194;DHT22;54121;53.508;49.422;2023-04-29T13:35:13;52.30;1.00
67194;DHT22;54121;53.508;49.422;2023-04-29T13:37:41;51.40;1.00
67194;DHT22;54121;53.508;49.422;2023-04-29T13:40:10;51.90;1.00
67194;DHT22;54121;53.508;49.422;2023-04-29T13:42:41;51.70;1.00
67194;DHT22;54121;53.508;49.422;2023-04-29T13:45:07;50.10;1.00
67194;DHT22;54121;53.508;49.422;2023-04-29T13:47:34;51.40;1.00
67194;DHT22;54121;53.508;49.422;2023-04-29T13:50:01;51.40;1.00
67194;DHT22;54121;53.508;49.422;2023-04-29T13:52:31;51.50;1.00
67194;DHT22;54121;53.508;49.422;2023-04-29T13:54:58;51.20;1.00
67194;DHT22;54121;53.508;49.422;2023-04-29T13:57:24;51.00;1.00
67194;DHT22;54121;53.508;49.422;2023-04-29T13:59:52;52.00;1.00
67194;DHT22;54121;53.508;49.422;2023-04-29T14:02:20;51.80;1.00
67194;DHT22;54121;53.508;49.422;2023-04-29T14:04:46;51.60;1.00
67194;DHT22;54121;53.508;49.422;2023-04-29T14:07:18;50.90;1.00
67194;DHT22;54121;53.508;49.422;2023-04-29T14:09:44;51.50;1.00
67194;DHT22;54121;53.508;49.422;2023-04-29T14:12:13;51.20;1.00
67194;DHT22;54121;53.508;49.422;2023-04-29T14:14:40;51.50;1.00
67194;DHT22;54121;53.508;49.422;2023-04-29T14:17:08;51.30;1.00
67194;DHT22;54121;53.508;49.422;2023-04-29T14:19:37;51.20;1.00
67194;DHT22;54121;53.508;49.422;2023-04-29T14:22:08;50.30;1.00
67194;DHT22;54121;53.508;49.422;2023-04-29T14:24:37;50.50;1.00
67194;DHT22;54121;53.508;49.422;2023-04-29T14:27:06;50.40;1.00
67194;DHT22;54121;53.508;49.422;2023-04-29T14:29:33;50.50;1.00
67194;DHT22;54121;53.508;49.422;2023-04-29T14:31:59;49.90;1.00
67194;DHT22;54121;53.508;49.422;2023-04-29T14:34:31;51.00;1.00
67194;DHT22;54121;53.508;49.422;2023-04-29T14:36:59;50.90;1.00
67194;DHT22;54121;53.508;49.422;2023-04-29T14:39:26;49.50;1.00
67194;DHT22;54121;53.508;49.422;2023-04-29T14:41:55;49.00;1.00
67194;DHT22;54121;53.508;49.422;2023-04-29T14:44:24;48.30;1.20
67194;DHT22;54121;53.508;49.422;2023-04-29T14:46:52;49.40;1.00
67194;DHT22;54121;53.508;49.422;2023-04-29T14:49:19;48.30;1.20
67194;DHT22;54121;53.508;49.422;2023-04-29T14:51:47;48.80;1.00
67194;DHT22;54121;53.508;49.422;2023-04-29T14:54:14;48.90;1.00
67194;DHT22;54121;53.508;49.422;2023-04-29T14:56:42;49.20;1.00
67194;DHT22;54121;53.508;49.422;2023-04-29T14:59:11;47.90;1.50
67194;DHT22;54121;53.508;49.422;2023-04-29T15:01:37;47.80;1.70
67194;DHT22;54121;53.508;49.422;2023-04-29T15:04:04;46.80;1.80
67194;DHT22;54121;53.508;49.422;2023-04-29T15:06:33;46.00;2.10
67194;DHT22;54121;53.508;49.422;2023-04-29T15:09:02;46.70;2.20
67194;DHT22;54121;53.508;49.422;2023-04-29T15:11:32;47.30;2.00
67194;DHT22;54121;53.508;49.422;2023-04-29T15:14:01;47.50;1.60
67194;DHT22;54121;53.508;49.422;2023-04-29T15:16:28;46.70;2.20
67194;DHT22;54121;53.508;49.422;2023-04-29T15:18:54;46.00;2.40
67194;DHT22;54121;53.508;49.422;2023-04-29T15:21:23;44.60;2.30
67194;DHT22;54121;53.508;49.422;2023-04-29T15:23:52;44.70;2.90
67194;DHT22;54121;53.508;49.422;2023-04-29T15:26:21;43.90;3.50
67194;DHT22;54121;53.508;49.422;2023-04-29T15:28:47;43.50;3.80
67194;DHT22;54121;53.508;49.422;2023-04-29T15:31:14;43.60;3.50
67194;DHT22;54121;53.508;49.422;2023-04-29T15:33:43;43.40;3.90
67194;DHT22;54121;53.508;49.422;2023-04-29T15:36:11;43.10;3.70
67194;DHT22;54121;53.508;49.422;2023-04-29T15:38:38;43.20;3.80
67194;DHT22;54121;53.508;49.422;2023-04-29T15:41:04;41.50;4.30
67194;DHT22;54121;53.508;49.422;2023-04-29T15:43:31;41.90;4.50
67194;DHT22;54121;53.508;49.422;2023-04-29T15:46:00;41.60;4.70
67194;DHT22;54121;53.508;49.422;2023-04-29T15:48:29;40.80;4.30
67194;DHT22;54121;53.508;49.422;2023-04-29T15:50:58;40.60;4.80
67194;DHT22;54121;53.508;49.422;2023-04-29T15:53:27;40.70;5.30
67194;DHT22;54121;53.508;49.422;2023-04-29T15:55:53;39.50;6.20
67194;DHT22;54121;53.508;49.422;2023-04-29T15:58:21;39.00;6.60
67194;DHT22;54121;53.508;49.422;2023-04-29T16:00:48;37.70;6.20
67194;DHT22;54121;53.508;49.422;2023-04-29T16:03:14;38.80;6.80
67194;DHT22;54121;53.508;49.422;2023-04-29T16:05:40;38.60;6.90
67194;DHT22;54121;53.508;49.422;2023-04-29T16:08:09;38.20;7.30
67194;DHT22;54121;53.508;49.422;2023-04-29T16:10:43;37.70;7.80